Time;durP1;ratioP1;P1;durP2;ratioP2;P2;SDS_P1;SDS_P2;PMS_P1;PMS_P2;Temp;Humidity;BMP_temperature;BMP_pressure;BME280_temperature;BME280_humidity;BME280_pressure;Samples;Min_cycle;Max_cycle;Signal;HPM_P1;HPM_P2
2022/08/30 00:03:26;;;;;;;4.68;2.47;;;;;;;19.08;100.00;102077.63;4906798;29;20754;-61
2022/08/30 00:05:53;;;;;;;7.00;2.65;;;;;;;19.06;100.00;102087.63;4907883;29;20480;-61
2022/08/30 00:08:21;;;;;;;6.63;2.50;;;;;;;19.02;100.00;102083.66;4911325;29;20052;-61
2022/08/30 00:10:50;;;;;;;4.72;2.40;;;;;;;19.06;100.00;102084.13;4905016;29;20529;-62
2022/08/30 00:13:18;;;;;;;6.13;2.40;;;;;;;19.06;100.00;102081.47;4903231;29;20052;-58
2022/08/30 00:15:45;;;;;;;7.03;3.33;;;;;;;19.02;100.00;102085.47;4908432;29;20168;-62
2022/08/30 00:18:14;;;;;;;5.33;2.27;;;;;;;18.99;100.00;102083.16;4919252;29;20087;-60
2022/08/30 00:20:41;;;;;;;6.32;2.58;;;;;;;18.95;100.00;102078.19;4902315;29;20060;-60
2022/08/30 00:23:08;;;;;;;4.85;2.22;;;;;;;18.92;100.00;102078.53;4905239;29;20052;-61
2022/08/30 00:25:34;;;;;;;5.82;2.65;;;;;;;18.94;100.00;102076.53;4894712;29;20056;-61
2022/08/30 00:28:01;;;;;;;5.38;2.75;;;;;;;18.95;100.00;102074.69;4904059;29;20052;-61
2022/08/30 00:30:28;;;;;;;3.90;2.60;;;;;;;18.92;100.00;102080.38;4910398;29;20052;-60
2022/08/30 00:32:54;;;;;;;5.53;2.58;;;;;;;18.88;100.00;102076.38;4906665;29;20164;-60
2022/08/30 00:35:21;;;;;;;7.60;2.83;;;;;;;18.87;100.00;102072.88;4906158;29;20052;-62
2022/08/30 00:37:49;;;;;;;5.50;2.73;;;;;;;18.80;100.00;102071.06;4889124;29;20052;-59
2022/08/30 00:40:19;;;;;;;6.80;3.45;;;;;;;18.81;100.00;102072.75;4902448;29;20052;-61
2022/08/30 00:42:54;;;;;;;6.47;3.05;;;;;;;18.75;100.00;102067.06;4908585;29;20048;-61
2022/08/30 00:45:29;;;;;;;4.97;3.05;;;;;;;18.77;100.00;102069.56;4905898;29;20052;-61
2022/08/30 00:47:56;;;;;;;4.93;3.03;;;;;;;18.69;100.00;102074.91;4912474;29;20427;-59
2022/08/30 00:50:26;;;;;;;7.35;3.50;;;;;;;18.74;100.00;102078.72;4896398;29;20074;-62
2022/08/30 00:52:56;;;;;;;4.80;3.30;;;;;;;18.74;100.00;102078.72;4906538;29;20067;-61
2022/08/30 00:55:23;;;;;;;6.65;3.47;;;;;;;18.64;100.00;102080.72;4887416;29;20044;-61
2022/08/30 00:57:55;;;;;;;5.07;3.60;;;;;;;18.57;100.00;102083.22;4911638;29;20489;-62
2022/08/30 01:00:22;;;;;;;5.63;3.95;;;;;;;18.54;100.00;102082.72;4910574;29;20060;-62
2022/08/30 01:02:48;;;;;;;6.43;3.47;;;;;;;18.51;100.00;102085.72;4902296;29;20052;-61
2022/08/30 01:05:19;;;;;;;4.10;2.83;;;;;;;18.51;100.00;102091.03;4907704;29;20524;-62
2022/08/30 01:07:45;;;;;;;5.67;3.50;;;;;;;18.46;100.00;102080.91;4901452;29;20437;-61
2022/08/30 01:10:14;;;;;;;5.72;3.75;;;;;;;18.44;100.00;102088.22;4911037;29;20060;-61
2022/08/30 01:12:41;;;;;;;;;;;;;;;18.46;100.00;102085.41;4895309;29;20060;-61
2022/08/30 01:15:11;;;;;;;4.88;3.58;;;;;;;18.42;100.00;102089.38;4911048;29;20033;-61
2022/08/30 01:17:40;;;;;;;4.20;2.92;;;;;;;18.39;100.00;102085.25;4905994;29;20055;-61
2022/08/30 01:20:08;;;;;;;;;;;;;;;18.44;100.00;102092.69;4899967;29;20092;-62
2022/08/30 01:22:45;;;;;;;7.88;4.25;;;;;;;18.41;100.00;102093.88;4917709;29;19922;-61
2022/08/30 01:25:15;;;;;;;5.10;3.63;;;;;;;18.33;100.00;102091.22;4906408;29;20574;-61
2022/08/30 01:27:49;;;;;;;5.45;4.30;;;;;;;18.33;100.00;102096.53;4907472;29;20060;-61
2022/08/30 01:30:15;;;;;;;8.25;4.30;;;;;;;18.27;100.00;102099.84;4898407;29;20056;-61
2022/08/30 01:32:45;;;;;;;6.65;3.92;;;;;;;18.25;100.00;102092.06;4901531;29;20062;-61
2022/08/30 01:35:17;;;;;;;7.55;4.13;;;;;;;18.23;100.00;102085.22;4884787;29;20059;-63
2022/08/30 01:37:44;;;;;;;6.55;3.83;;;;;;;18.26;100.00;102091.03;4903663;29;20078;-61
2022/08/30 01:40:13;;;;;;;6.57;4.10;;;;;;;18.30;100.00;102092.38;4910099;29;20044;-61
2022/08/30 01:42:40;;;;;;;6.13;4.32;;;;;;;18.28;100.00;102099.69;4903129;29;20056;-62
2022/08/30 01:45:08;;;;;;;4.72;4.13;;;;;;;18.31;100.00;102098.53;4896347;29;20056;-61
2022/08/30 01:47:35;;;;;;;6.05;4.05;;;;;;;18.27;100.00;102097.19;4900573;29;20646;-61
2022/08/30 01:50:04;;;;;;;9.18;4.03;;;;;;;18.23;100.00;102096.72;4910229;29;20044;-61
2022/08/30 01:52:31;;;;;;;7.32;3.58;;;;;;;18.22;100.00;102095.03;4903199;29;20486;-61
2022/08/30 01:54:57;;;;;;;6.43;4.10;;;;;;;18.19;100.00;102092.72;4907955;29;20053;-61
2022/08/30 01:57:25;;;;;;;6.38;4.25;;;;;;;18.20;100.00;102094.38;4899800;29;20048;-61
2022/08/30 01:59:52;;;;;;;7.85;4.45;;;;;;;18.15;100.00;102094.03;4891167;29;20059;-61
2022/08/30 02:02:24;;;;;;;6.88;4.70;;;;;;;18.17;100.00;102098.19;4895000;29;20143;-62
2022/08/30 02:04:52;;;;;;;6.82;4.43;;;;;;;18.08;100.00;102101.84;4894274;29;20052;-61
2022/08/30 02:07:20;;;;;;;11.32;4.28;;;;;;;18.07;100.00;102102.00;4909728;29;20067;-61
2022/08/30 02:09:46;;;;;;;6.88;4.30;;;;;;;18.02;100.00;102105.16;4900526;29;20313;-60
2022/08/30 02:12:14;;;;;;;8.55;4.53;;;;;;;18.02;100.00;102101.69;4906689;29;20063;-61
2022/08/30 02:14:40;;;;;;;6.20;4.57;;;;;;;17.97;100.00;102103.00;4895663;29;20605;-61
2022/08/30 02:17:09;;;;;;;6.35;4.30;;;;;;;17.98;100.00;102101.16;4899348;29;20056;-61
2022/08/30 02:19:35;;;;;;;7.78;4.75;;;;;;;17.93;100.00;102096.34;4911465;29;20047;-61
2022/08/30 02:22:02;;;;;;;6.90;5.20;;;;;;;17.91;100.00;102092.19;4896433;29;20044;-61
2022/08/30 02:24:28;;;;;;;7.07;5.50;;;;;;;17.82;100.00;102091.34;4901632;29;20075;-60
2022/08/30 02:26:55;;;;;;;6.22;4.28;;;;;;;17.80;100.00;102093.31;4895465;29;20048;-61
2022/08/30 02:29:22;;;;;;;7.35;5.20;;;;;;;17.81;100.00;102094.13;4897878;29;20056;-61
2022/08/30 02:31:49;;;;;;;5.83;4.43;;;;;;;17.78;100.00;102097.97;4907718;29;20122;-61
2022/08/30 02:34:16;;;;;;;7.63;5.55;;;;;;;17.77;100.00;102093.63;4902344;29;20087;-61
2022/08/30 02:36:44;;;;;;;6.93;5.13;;;;;;;17.78;100.00;102092.66;4904535;29;20052;-61
2022/08/30 02:39:12;;;;;;;8.77;5.45;;;;;;;17.72;100.00;102090.63;4904032;29;20167;-61
2022/08/30 02:41:39;;;;;;;;;;;;;;;17.75;100.00;102091.13;4882233;29;20485;-61
2022/08/30 02:44:06;;;;;;;7.13;5.30;;;;;;;17.71;100.00;102083.66;4897828;29;19926;-60
2022/08/30 02:46:33;;;;;;;8.70;5.18;;;;;;;17.68;100.00;102087.50;4909989;29;20063;-61
2022/08/30 02:49:00;;;;;;;9.95;6.15;;;;;;;17.68;100.00;102089.28;4914916;29;20061;-59
2022/08/30 02:51:47;;;;;;;6.93;4.57;;;;;;;17.69;100.00;102083.81;4911238;29;20429;-61
2022/08/30 02:54:18;;;;;;;6.18;4.75;;;;;;;17.71;100.00;102081.84;4900856;29;20090;-60
2022/08/30 02:56:46;;;;;;;6.97;4.90;;;;;;;17.73;100.00;102077.19;4886107;29;20056;-60
2022/08/30 02:59:14;;;;;;;8.23;5.55;;;;;;;17.75;100.00;102069.91;4904915;29;20063;-61
2022/08/30 03:01:42;;;;;;;10.07;6.70;;;;;;;17.72;100.00;102077.34;4901814;29;20685;-61
2022/08/30 03:04:08;;;;;;;7.78;5.10;;;;;;;17.69;100.00;102067.09;4902957;29;20051;-61
2022/08/30 03:06:35;;;;;;;8.57;5.72;;;;;;;17.63;100.00;102075.69;4902468;29;20058;-61
2022/08/30 03:09:02;;;;;;;7.63;5.28;;;;;;;17.66;100.00;102068.25;4903900;29;20066;-62
2022/08/30 03:11:30;;;;;;;6.38;5.28;;;;;;;17.64;100.00;102078.19;4904998;29;20513;-60
2022/08/30 03:13:56;;;;;;;9.07;5.60;;;;;;;17.60;100.00;102068.88;4904067;29;20056;-60
2022/08/30 03:16:22;;;;;;;9.13;5.65;;;;;;;17.60;100.00;102068.88;4909319;29;20048;-60
2022/08/30 03:18:49;;;;;;;8.63;6.20;;;;;;;17.58;100.00;102065.56;4897330;29;20079;-59
2022/08/30 03:21:16;;;;;;;5.50;4.82;;;;;;;17.61;100.00;102065.25;4909607;29;20461;-60
2022/08/30 03:23:43;;;;;;;9.27;5.38;;;;;;;17.62;100.00;102058.09;4894223;29;20052;-60
2022/08/30 03:26:13;;;;;;;7.43;5.07;;;;;;;17.62;100.00;102060.75;4895866;29;20055;-61
2022/08/30 03:28:42;;;;;;;9.13;4.70;;;;;;;17.63;100.00;102062.44;4907962;29;20059;-61
2022/08/30 03:31:08;;;;;;;6.65;4.93;;;;;;;17.62;100.00;102066.06;4897454;29;20056;-60
2022/08/30 03:33:35;;;;;;;10.23;5.90;;;;;;;17.62;100.00;102072.22;4905208;29;20047;-61
2022/08/30 03:36:02;;;;;;;8.13;5.88;;;;;;;17.56;100.00;102065.75;4898311;29;20279;-60
2022/08/30 03:38:29;;;;;;;7.40;5.93;;;;;;;17.52;100.00;102068.84;4903182;29;20079;-60
2022/08/30 03:40:56;;;;;;;6.95;5.95;;;;;;;17.48;100.00;102068.34;4903234;29;20512;-61
2022/08/30 03:43:24;;;;;;;6.55;4.38;;;;;;;17.50;100.00;102063.72;4906075;29;20083;-61
2022/08/30 03:45:50;;;;;;;6.97;5.97;;;;;;;17.47;100.00;102066.69;4899651;29;20111;-61
2022/08/30 03:48:17;;;;;;;6.30;5.30;;;;;;;17.46;100.00;102064.19;4900336;29;20052;-61
2022/08/30 03:50:43;;;;;;;7.38;5.90;;;;;;;17.43;100.00;102069.84;4890777;29;20407;-59
2022/08/30 03:53:10;;;;;;;10.00;6.28;;;;;;;17.36;100.00;102074.94;4909080;29;20060;-61
2022/08/30 03:55:36;;;;;;;9.65;5.13;;;;;;;17.36;100.00;102074.94;4906500;29;20070;-60
2022/08/30 03:58:03;;;;;;;7.65;5.70;;;;;;;17.30;100.00;102070.28;4903050;29;20404;-61
2022/08/30 04:00:29;;;;;;;8.80;5.25;;;;;;;17.26;100.00;102079.56;4908664;29;20039;-61
2022/08/30 04:02:56;;;;;;;11.00;5.35;;;;;;;17.28;100.00;102086.34;4905169;29;20052;-61
2022/08/30 04:05:22;;;;;;;6.55;5.25;;;;;;;17.22;100.00;102081.69;4898306;29;20323;-61
2022/08/30 04:07:49;;;;;;;7.68;5.22;;;;;;;17.21;100.00;102082.69;4886326;29;20056;-60
2022/08/30 04:10:15;;;;;;;8.27;5.70;;;;;;;17.14;100.00;102089.63;4884432;29;20051;-61
2022/08/30 04:12:42;;;;;;;5.38;3.63;;;;;;;17.15;100.00;102083.31;4903706;29;20044;-62
2022/08/30 04:15:16;;;;;;;7.18;5.00;;;;;;;17.18;100.00;102083.00;4900849;29;20704;-61
2022/08/30 04:17:43;;;;;;;;;;;;;;;17.22;100.00;102084.34;4906535;29;20058;-60
2022/08/30 04:20:09;;;;;;;;;;;;;;;17.28;100.00;102083.69;4900094;29;20022;-65
2022/08/30 04:22:35;;;;;;;;;;;;;;;17.28;100.00;102083.69;4898988;29;20296;-61
2022/08/30 04:25:02;;;;;;;;;;;;;;;17.25;100.00;102085.84;4912367;29;19923;-59
2022/08/30 04:27:29;;;;;;;;;;;;;;;17.27;100.00;102079.41;4905565;29;19931;-60
2022/08/30 04:29:55;;;;;;;;;;;;;;;17.20;100.00;102079.19;4908220;29;20631;-61
2022/08/30 04:32:22;;;;;;;;;;;;;;;17.15;100.00;102083.31;4902681;29;19927;-62
2022/08/30 04:34:48;;;;;;;;;;;;;;;17.13;100.00;102091.44;4900969;29;20296;-61
2022/08/30 04:37:15;;;;;;;;;;;;;;;17.18;100.00;102086.47;4912537;29;20337;-61
2022/08/30 04:39:42;;;;;;;;;;;;;;;17.15;100.00;102084.16;4904167;29;19934;-61
2022/08/30 04:42:09;;;;;;;;;;;;;;;17.18;100.00;102088.31;4904940;29;20086;-61
2022/08/30 04:44:36;;;;;;;;;;;;;;;17.13;100.00;102085.28;4902183;29;20368;-61
2022/08/30 04:47:02;;;;;;;;;;;;;;;17.11;100.00;102084.63;4896332;29;20457;-61
2022/08/30 04:49:31;;;;;;;;;;;;;;;17.08;100.00;102090.25;4893908;29;19927;-60
2022/08/30 04:51:57;;;;;;;;;;;;;;;17.04;100.00;102097.69;4908214;29;19930;-61
2022/08/30 04:54:23;;;;;;;;;;;;;;;17.10;100.00;102093.56;4911378;29;20365;-61
2022/08/30 04:56:49;;;;;;;;;;;;;;;17.10;100.00;102106.84;4902885;29;19949;-61
2022/08/30 04:59:16;;;;;;;;;;;;;;;17.13;100.00;102104.69;4902003;29;19933;-61
2022/08/30 05:01:42;;;;;;;;;;;;;;;17.07;100.00;102105.34;4902736;29;20467;-61
2022/08/30 05:04:11;;;;;;;;;;;;;;;17.06;100.00;102103.66;4911056;29;19923;-60
2022/08/30 05:06:37;;;;;;;;;;;;;;;17.06;100.00;102105.50;4901204;29;19927;-61
2022/08/30 05:09:04;;;;;;;;;;;;;;;17.03;100.00;102108.44;4882587;29;19927;-61
2022/08/30 05:11:30;;;;;;;;;;;;;;;17.07;100.00;102110.63;4907818;29;19930;-60
2022/08/30 05:13:57;;;;;;;;;;;;;;;17.05;100.00;102117.06;4900309;29;19933;-61
2022/08/30 05:16:23;;;;;;;;;;;;;;;17.05;100.00;102117.88;4900248;29;20303;-61
2022/08/30 05:18:50;;;;;;;;;;;;;;;17.02;100.00;102118.22;4898628;29;19974;-60
2022/08/30 05:21:19;;;;;;;;;;;;;;;17.00;100.00;102115.72;4906591;29;20269;-61
2022/08/30 05:23:45;;;;;;;;;;;;;;;17.04;100.00;102112.78;4914456;29;20412;-61
2022/08/30 05:26:13;;;;;;;;;;;;;;;17.02;100.00;102112.09;4899379;29;19923;-61
2022/08/30 05:28:40;;;;;;;;;;;;;;;16.98;100.00;102109.75;4904980;29;19927;-61
2022/08/30 05:31:14;;;;;;;;;;;;;;;16.97;100.00;102121.34;4903028;29;20311;-61
2022/08/30 05:33:41;;;;;;;;;;;;;;;16.99;100.00;102118.53;4906875;29;19933;-61
2022/08/30 05:36:08;;;;;;;;;;;;;;;16.98;100.00;102119.53;4899510;29;19935;-61
2022/08/30 05:38:35;;;;;;;;;;;;;;;16.99;100.00;102121.16;4900886;29;19933;-62
2022/08/30 05:41:02;;;;;;;;;;;;;;;17.01;100.00;102127.16;4901041;29;19934;-60
2022/08/30 05:43:36;;;;;;;;;;;;;;;17.05;100.00;102123.19;4903445;29;19926;-60
2022/08/30 05:46:05;;;;;;;;;;;;;;;17.05;100.00;102122.38;4911225;29;19950;-61
2022/08/30 05:48:31;;;;;;;;;;;;;;;17.07;100.00;102125.69;4894310;29;19926;-61
2022/08/30 05:51:10;;;;;;;;;;;;;;;17.05;100.00;102125.84;4897015;29;19950;-60
2022/08/30 05:53:37;;;;;;;;;;;;;;;17.06;100.00;102132.00;4893474;29;20034;-60
2022/08/30 05:56:05;;;;;;;;;;;;;;;17.12;100.00;102129.53;4910572;29;19927;-61
2022/08/30 05:58:31;;;;;;;;;;;;;;;17.19;100.00;102135.88;4904606;29;19927;-62
2022/08/30 06:00:58;;;;;;;;;;;;;;;17.17;100.00;102132.56;4907269;29;20472;-61
2022/08/30 06:03:24;;;;;;;;;;;;;;;17.22;100.00;102133.91;4889985;29;20234;-61
2022/08/30 06:05:52;;;;;;;;;;;;;;;17.26;100.00;102138.72;4895498;29;19923;-61
2022/08/30 06:08:19;;;;;;;;;;;;;;;17.25;100.00;102139.72;4905168;29;19923;-61
2022/08/30 06:10:46;;;;;;;;;;;;;;;17.24;100.00;102140.69;4900929;29;19965;-61
2022/08/30 06:13:13;;;;;;;;;;;;;;;17.31;100.00;102135.59;4891821;29;19942;-61
2022/08/30 06:15:42;;;;;;;;;;;;;;;17.38;100.00;102129.47;4894706;29;20402;-61
2022/08/30 06:18:09;;;;;;;;;;;;;;;17.41;100.00;102132.84;4909524;29;19970;-61
2022/08/30 06:20:38;;;;;;;;;;;;;;;17.41;100.00;102127.53;4898260;29;19926;-61
2022/08/30 06:23:04;;;;;;;;;;;;;;;17.46;100.00;102131.34;4892308;29;19934;-60
2022/08/30 06:25:31;;;;;;;;;;;;;;;17.49;100.00;102130.22;4908212;29;19927;-61
2022/08/30 06:28:08;;;;;;;;;;;;;;;17.45;100.00;102128.88;4900839;29;20411;-61
2022/08/30 06:30:34;;;;;;;;;;;;;;;17.44;100.00;102138.63;4909870;29;19970;-61
2022/08/30 06:33:01;;;;;;;;;;;;;;;17.45;100.00;102144.78;4899574;29;19933;-58
2022/08/30 06:35:27;;;;;;;;;;;;;;;17.47;100.00;102140.97;4905734;29;19934;-61
2022/08/30 06:37:54;;;;;;;;;;;;;;;17.45;100.00;102140.31;4910400;29;20407;-61
2022/08/30 06:40:21;;;;;;;;;;;;;;;17.47;100.00;102138.31;4901881;29;19927;-60
2022/08/30 06:42:49;;;;;;;;;;;;;;;17.48;100.00;102137.31;4907649;29;19938;-61
2022/08/30 06:45:16;;;;;;;;;;;;;;;17.57;100.00;102130.22;4899866;29;19937;-62
2022/08/30 06:47:42;;;;;;;;;;;;;;;17.62;100.00;102132.38;4897313;29;20491;-60
2022/08/30 06:50:11;;;;;;;;;;;;;;;17.66;100.00;102137.25;4893561;29;20439;-60
2022/08/30 06:52:39;;;;;;;;;;;;;;;17.69;100.00;102139.56;4908837;29;19953;-60
2022/08/30 06:55:05;;;;;;;;;;;;;;;17.71;100.00;102136.75;4892678;29;19927;-61
2022/08/30 06:57:31;;;;;;;;;;;;;;;17.77;100.00;102133.44;4911213;29;19927;-60
2022/08/30 06:59:58;;;;;;;;;;;;;;;17.82;100.00;102133.78;4911041;29;21504;-60
2022/08/30 07:02:25;;;;;;;;;;;;;;;17.87;100.00;102146.59;4898981;29;19923;-60
2022/08/30 07:04:51;;;;;;;;;;;;;;;17.90;100.00;102140.97;4904644;29;19970;-60
2022/08/30 07:07:18;;;;;;;;;;;;;;;17.92;100.00;102144.31;4905379;29;19927;-60
2022/08/30 07:09:44;;;;;;;;;;;;;;;17.94;100.00;102143.13;4907927;29;19930;-62
2022/08/30 07:12:11;;;;;;;;;;;;;;;18.04;100.00;102140.34;4909857;29;20014;-62
2022/08/30 07:14:38;;;;;;;;;;;;;;;18.05;100.00;102144.63;4902507;29;20406;-60
2022/08/30 07:18:49;;;;;;;;;;;;;;;18.08;100.00;102141.66;4903513;29;19945;-60
2022/08/30 07:19:56;;;;;;;;;;;;;;;18.13;100.00;102139.34;4903427;29;19923;-60
2022/08/30 07:22:22;;;;;;;;;;;;;;;18.11;100.00;102144.00;4910756;29;19930;-60
2022/08/30 07:24:49;;;;;;;;;;;;;;;18.16;100.00;102141.66;4901898;29;19926;-61
2022/08/30 07:27:15;;;;;;;;;;;;;;;18.25;100.00;102144.31;4911070;29;19930;-59
2022/08/30 07:29:41;;;;;;;;;;;;;;;18.24;100.00;102140.84;4904094;29;20380;-60
2022/08/30 07:32:08;;;;;;;;;;;;;;;18.28;100.00;102144.00;4893904;29;19934;-59
2022/08/30 07:34:34;;;;;;;;;;;;;;;18.34;100.00;102146.81;4909754;29;19934;-60
2022/08/30 07:37:00;;;;;;;;;;;;;;;18.33;100.00;102152.31;4900192;29;19942;-61
2022/08/30 07:39:27;;;;;;;;;;;;;;;18.37;100.00;102146.50;4903271;29;19930;-61
2022/08/30 07:41:57;;;;;;;;;;;;;;;18.37;100.00;102154.47;4899502;29;19931;-60
2022/08/30 07:44:23;;;;;;;;;;;;;;;18.44;100.00;102154.63;4905727;29;19965;-60
2022/08/30 07:46:50;;;;;;;;;;;;;;;18.54;99.48;102151.81;4898996;29;19935;-62
2022/08/30 07:49:18;;;;;;;;;;;;;;;18.59;98.56;102144.19;4909537;29;20041;-60
2022/08/30 07:51:45;;;;;;;;;;;;;;;18.63;97.61;102157.97;4910476;29;19950;-61
2022/08/30 07:54:11;;;;;;;;;;;;;;;18.63;98.46;102150.81;4897942;29;19927;-60
2022/08/30 07:56:37;;;;;;;;;;;;;;;18.69;97.70;102152.78;4906418;29;19927;-60
2022/08/30 07:59:04;;;;;;;;;;;;;;;18.77;96.28;102150.13;4902959;29;19926;-60
2022/08/30 08:01:30;;;;;;;;;;;;;;;18.85;95.65;102151.97;4907711;29;20399;-60
2022/08/30 08:03:57;;;;;;;;;;;;;;;18.95;94.76;102155.31;4907991;29;20545;-60
2022/08/30 08:06:23;;;;;;;;;;;;;;;19.13;93.03;102151.56;4912214;29;19923;-62
2022/08/30 08:08:52;;;;;;;;;;;;;;;19.25;90.95;102154.69;4903895;29;19927;-61
2022/08/30 08:11:21;;;;;;;;;;;;;;;19.42;89.89;102152.81;4899509;29;20022;-61
2022/08/30 08:13:48;;;;;;;;;;;;;;;19.64;89.87;102156.53;4903525;29;19923;-61
2022/08/30 08:16:26;;;;;;;;;;;;;;;19.83;85.58;102150.00;4904230;29;19928;-61
2022/08/30 08:18:53;;;;;;;;;;;;;;;19.99;81.96;102149.06;4886899;29;19926;-62
2022/08/30 08:21:20;;;;;;;;;;;;;;;20.26;81.62;102147.69;4906191;29;20034;-59
2022/08/30 08:23:47;;;;;;;;;;;;;;;20.42;79.43;102149.41;4913403;29;19933;-61
2022/08/30 08:26:14;;;;;;;;;;;;;;;20.67;78.62;102155.38;4894804;29;19934;-59
2022/08/30 08:28:40;;;;;;;;;;;;;;;20.86;75.25;102144.19;4900108;29;20038;-61
2022/08/30 08:31:14;;;;;;;;;;;;;;;20.95;72.64;102150.25;4913497;29;19927;-61
2022/08/30 08:33:40;;;;;;;;;;;;;;;21.11;72.98;102149.25;4897399;29;19950;-60
2022/08/30 08:36:07;;;;;;;;;;;;;;;21.27;73.20;102159.75;4912840;29;19933;-60
2022/08/30 08:38:35;;;;;;;;;;;;;;;21.41;72.55;102159.94;4905909;29;19931;-61
2022/08/30 08:41:26;;;;;;;;;;;;;;;21.59;71.13;102152.38;4903676;29;19923;-60
2022/08/30 08:43:53;;;;;;;;;;;;;;;21.80;69.18;102153.44;4876344;29;19923;-61
2022/08/30 08:46:25;;;;;;;;;;;;;;;21.98;69.08;102161.84;4906207;29;19930;-60
2022/08/30 08:48:59;;;;;;;;;;;;;;;22.20;69.87;102165.34;4912267;29;19930;-62
2022/08/30 08:54:18;;;;;;;;;;;;;;;22.49;66.05;102156.38;4908855;29;19933;-60
2022/08/30 08:56:44;;;;;;;;;;;;;;;22.60;65.84;102151.53;4900635;29;19931;-60
2022/08/30 08:59:10;;;;;;;;;;;;;;;22.71;64.34;102145.66;4908280;29;19931;-61
2022/08/30 09:01:37;;;;;;;;;;;;;;;22.84;63.25;102156.44;4901625;29;19934;-58
2022/08/30 09:04:08;;;;;;;;;;;;;;;22.93;62.54;102156.28;4909948;29;19934;-61
2022/08/30 09:06:47;;;;;;;;;;;;;;;23.09;63.41;102156.84;4902974;29;19938;-61
2022/08/30 09:09:16;;;;;;;;;;;;;;;23.12;60.43;102157.47;4899672;29;19923;-61
2022/08/30 09:11:45;;;;;;;;;;;;;;;23.30;60.39;102161.25;4900140;29;19929;-60
2022/08/30 09:14:13;;;;;;;;;;;;;;;23.38;58.54;102162.13;4914450;29;19977;-61
2022/08/30 09:16:50;;;;;;;;;;;;;;;23.38;57.97;102149.56;4912447;29;19923;-60
2022/08/30 09:19:32;;;;;;;;;;;;;;;23.56;59.60;102164.25;4906296;29;20418;-61
2022/08/30 09:22:02;;;;;;;;;;;;;;;23.63;60.03;102160.56;4909682;29;19927;-61
2022/08/30 09:24:48;;;;;;;;;;;;;;;23.71;60.04;102158.75;4908396;29;19927;-61
2022/08/30 09:27:16;;;;;;;;;;;;;;;23.77;59.94;102161.44;4903347;29;19922;-63
2022/08/30 09:30:16;;;;;;;;;;;;;;;23.90;58.43;102163.38;4912138;29;19927;-61
2022/08/30 09:33:04;;;;;;;;;;;;;;;24.00;58.32;102155.75;4898717;29;20025;-61
2022/08/30 09:35:35;;;;;;;;;;;;;;;23.98;57.19;102159.69;4905782;29;19927;-60
2022/08/30 09:38:34;;;;;;;;;;;;;;;24.09;57.43;102156.41;4901514;29;19926;-61
2022/08/30 09:41:20;;;;;;;;;;;;;;;24.35;58.39;102150.22;4898697;29;19930;-61
2022/08/30 09:44:01;;;;;;;;;;;;;;;24.53;57.96;102148.81;4903873;29;19926;-62
2022/08/30 09:46:29;;;;;;;;;;;;;;;24.68;58.54;102162.84;4909863;29;20315;-62
2022/08/30 09:48:55;;;;;;;;;;;;;;;24.79;59.28;102158.69;4907731;29;20017;-62
2022/08/30 09:51:29;;;;;;;;;;;;;;;24.88;57.12;102156.63;4899621;29;19930;-61
2022/08/30 09:54:02;;;;;;;;;;;;;;;24.99;55.66;102158.63;4894094;29;19923;-62
2022/08/30 09:56:49;;;;;;;;;;;;;;;25.13;56.25;102156.75;4912062;29;20022;-62
2022/08/30 09:59:25;;;;;;;;;;;;;;;25.03;53.25;102157.19;4904559;29;19927;-61
2022/08/30 10:02:15;;;;;;;;;;;;;;;25.11;56.03;102158.81;4903247;29;19930;-61
2022/08/30 10:05:01;;;;;;;;;;;;;;;25.19;53.31;102156.75;4891729;29;19934;-62
2022/08/30 10:07:37;;;;;;;;;;;;;;;25.34;54.66;102161.03;4898290;29;19931;-61
2022/08/30 10:10:07;;;;;;;;;;;;;;;25.49;55.19;102152.72;4905529;29;19923;-62
2022/08/30 10:12:53;;;;;;;;;;;;;;;25.69;54.40;102158.81;4901542;29;19929;-61
2022/08/30 10:15:26;;;;;;;;;;;;;;;25.72;53.72;102144.97;4892406;29;19927;-62
2022/08/30 10:17:58;;;;;;;;;;;;;;;26.03;54.05;102149.56;4896949;29;19941;-61
2022/08/30 10:20:30;;;;;;;;;;;;;;;26.14;52.07;102155.25;4906347;29;19923;-61
2022/08/30 10:22:59;;;;;;;;;;;;;;;26.24;52.43;102148.34;4896588;29;20274;-62
2022/08/30 10:25:34;;;;;;;;;;;;;;;26.38;52.09;102150.91;4905820;29;19923;-61
2022/08/30 10:28:15;;;;;;;;;;;;;;;26.53;51.68;102150.59;4904743;29;19950;-61
2022/08/30 10:30:50;;;;;;;;;;;;;;;26.51;53.01;102150.81;4909081;29;20269;-62
2022/08/30 10:33:22;;;;;;;;;;;;;;;26.59;53.07;102147.06;4897287;29;20018;-62
2022/08/30 10:35:56;;;;;;;;;;;;;;;26.63;50.48;102150.94;4910285;29;19931;-62
2022/08/30 10:38:25;;;;;;;;;;;;;;;26.69;50.45;102138.47;4904289;29;19927;-61
2022/08/30 10:41:15;;;;;;;;;;;;;;;26.79;49.88;102149.53;4910226;29;19927;-62
2022/08/30 10:43:45;;;;;;;;;;;;;;;26.86;50.37;102142.22;4908738;29;20058;-62
2022/08/30 10:46:28;;;;;;;;;;;;;;;26.92;49.78;102144.03;4899698;29;20038;-62
2022/08/30 10:48:55;;;;;;;;;;;;;;;27.00;49.81;102141.03;4905260;29;20299;-62
2022/08/30 10:51:35;;;;;;;;;;;;;;;27.17;48.64;102138.56;4907702;29;19931;-62
2022/08/30 10:54:12;;;;;;;;;;;;;;;27.25;50.10;102145.53;4910290;29;19931;-62
2022/08/30 10:56:46;;;;;;;;;;;;;;;27.20;47.47;102146.16;4891334;29;20435;-62
2022/08/30 10:59:15;;;;;;;;;;;;;;;27.22;47.24;102137.88;4904212;29;19927;-61
2022/08/30 11:01:46;;;;;;;;;;;;;;;27.42;48.54;102126.88;4897291;29;20025;-63
2022/08/30 11:04:19;;;;;;;;;;;;;;;27.50;48.67;102131.97;4910567;29;19926;-62
2022/08/30 11:06:52;;;;;;;;;;;;;;;27.58;49.73;102128.94;4903229;29;19930;-62
2022/08/30 11:09:40;;;;;;;;;;;;;;;27.67;47.74;102124.03;4904151;29;19938;-62
2022/08/30 11:12:22;;;;;;;;;;;;;;;27.90;48.35;102134.09;4905168;29;19927;-62
2022/08/30 11:14:49;;;;;;;;;;;;;;;28.03;47.99;102132.25;4896583;29;19942;-61
2022/08/30 11:17:35;;;;;;;;;;;;;;;28.11;46.90;102131.91;4906578;29;19930;-62
2022/08/30 11:20:03;;;;;;;;;;;;;;;28.30;48.90;102133.44;4903114;29;19923;-62
2022/08/30 11:22:34;;;;;;;;;;;;;;;28.38;46.17;102126.88;4914714;29;19927;-61
2022/08/30 11:25:10;;;;;;;;;;;;;;;28.48;45.61;102124.44;4900707;29;19935;-62
2022/08/30 11:27:55;;;;;;;;;;;;;;;28.50;44.61;102129.59;4905761;29;20380;-62
2022/08/30 11:30:25;;;;;;;;;;;;;;;28.50;45.15;102125.03;4895389;29;19934;-63
2022/08/30 11:32:56;;;;;;;;;;;;;;;28.53;44.69;102124.56;4906281;29;19924;-61
2022/08/30 11:35:36;;;;;;;;;;;;;;;28.58;45.04;102113.09;4905134;29;19930;-61
2022/08/30 11:38:17;;;;;;;;;;;;;;;28.63;44.23;102120.47;4908710;29;19933;-61
2022/08/30 11:40:44;;;;;;;;;;;;;;;28.68;44.72;102124.09;4901272;29;19978;-62
2022/08/30 11:43:29;;;;;;;;;;;;;;;28.68;44.59;102121.41;4895111;29;20256;-62
2022/08/30 11:46:29;;;;;;;;;;;;;;;28.72;45.91;102111.78;4899704;29;19974;-62
2022/08/30 11:49:14;;;;;;;;;;;;;;;28.88;44.72;102110.22;4866311;29;19978;-61
2022/08/30 11:51:43;;;;;;;;;;;;;;;29.05;44.85;102110.28;4901540;29;20038;-62
2022/08/30 11:54:21;;;;;;;;;;;;;;;29.04;43.43;102103.25;4891685;29;19923;-62
2022/08/30 11:56:59;;;;;;;;;;;;;;;28.97;43.38;102102.53;4896015;29;20014;-62
2022/08/30 11:59:33;;;;;;;;;;;;;;;29.01;43.55;102097.50;4890560;29;20006;-62
2022/08/30 12:02:00;;;;;;;;;;;;;;;29.08;43.78;102101.69;4910480;29;20295;-61
2022/08/30 12:04:36;;;;;;;;;;;;;;;29.02;42.46;102096.44;4903538;29;20439;-61
2022/08/30 12:07:04;;;;;;;;;;;;;;;29.14;43.23;102092.66;4909771;29;19938;-61
2022/08/30 12:09:33;;;;;;;;;;;;;;;29.12;42.81;102094.78;4904155;29;20505;-61
2022/08/30 12:12:04;;;;;;;;;;;;;;;29.22;42.14;102098.75;4891759;29;19933;-61
2022/08/30 12:14:43;;;;;;;;;;;;;;;29.21;43.57;102097.09;4907104;29;20467;-61
2022/08/30 12:19:59;;;;;;;;;;;;;;;29.32;43.84;102093.53;4910764;29;19927;-61
2022/08/30 12:22:26;;;;;;;;;;;;;;;29.29;44.36;102088.63;4900687;29;19924;-62
2022/08/30 12:24:53;;;;;;;;;;;;;;;29.46;43.71;102086.78;4899926;29;19923;-58
2022/08/30 12:27:21;;;;;;;;;;;;;;;29.40;42.52;102089.63;4892912;29;19959;-61